Time;durP1;ratioP1;P1;durP2;ratioP2;P2;SDS_P1;SDS_P2;PMS_P1;PMS_P2;Temp;Humidity;BMP_temperature;BMP_pressure;BME280_temperature;BME280_humidity;BME280_pressure;Samples;Min_cycle;Max_cycle;Signal;HPM_P1;HPM_P2
2023/08/06 00:00:10;;;;;;;4.60;3.47;;;15.30;99.90;;;;;;5013363;28;20220;-79
2023/08/06 00:02:36;;;;;;;4.97;3.77;;;15.20;99.90;;;;;;5015562;28;20672;-79
2023/08/06 00:05:02;;;;;;;5.53;3.63;;;15.20;99.90;;;;;;5015357;28;20177;-79
2023/08/06 00:07:28;;;;;;;11.67;4.10;;;15.20;99.90;;;;;;5014442;28;20649;-80
2023/08/06 00:09:53;;;;;;;9.10;4.33;;;15.20;99.90;;;;;;5015515;28;20204;-79
2023/08/06 00:12:19;;;;;;;8.07;3.43;;;15.20;99.90;;;;;;5016895;28;20173;-80
2023/08/06 00:14:45;;;;;;;6.80;3.60;;;15.20;99.90;;;;;;5015935;28;20255;-79
2023/08/06 00:17:11;;;;;;;7.67;3.60;;;15.20;99.90;;;;;;5017160;28;20641;-80
2023/08/06 00:19:36;;;;;;;8.40;3.93;;;15.20;99.90;;;;;;5017258;28;20700;-80
2023/08/06 00:22:02;;;;;;;10.23;3.73;;;15.20;99.90;;;;;;5016699;28;20203;-80
2023/08/06 00:24:28;;;;;;;9.73;3.90;;;15.20;99.90;;;;;;5018452;28;20234;-80
2023/08/06 00:26:53;;;;;;;12.23;3.70;;;15.20;99.90;;;;;;5025097;28;20173;-79
2023/08/06 00:29:19;;;;;;;8.67;3.77;;;15.20;99.90;;;;;;5034515;28;20181;-79
2023/08/06 00:31:44;;;;;;;5.07;3.63;;;15.20;99.90;;;;;;5034154;28;20235;-79
2023/08/06 00:34:10;;;;;;;10.53;4.20;;;15.20;99.90;;;;;;5033596;28;20204;-80
2023/08/06 00:36:35;;;;;;;12.83;3.90;;;15.10;99.90;;;;;;5030902;28;20192;-79
2023/08/06 00:39:01;;;;;;;9.43;3.53;;;15.10;99.90;;;;;;5029741;28;20272;-79
2023/08/06 00:41:27;;;;;;;6.00;3.87;;;15.10;99.90;;;;;;5023260;28;20610;-79
2023/08/06 00:43:53;;;;;;;6.67;3.60;;;15.10;99.90;;;;;;5012776;28;20181;-79
2023/08/06 00:46:18;;;;;;;7.37;4.10;;;15.00;99.90;;;;;;5013242;28;20679;-79
2023/08/06 00:48:44;;;;;;;7.43;3.03;;;15.10;99.90;;;;;;5015185;28;20228;-80
2023/08/06 00:51:11;;;;;;;12.70;3.53;;;15.00;99.90;;;;;;5013302;28;20582;-79
2023/08/06 00:53:38;;;;;;;5.27;3.60;;;15.00;99.90;;;;;;5013354;28;20522;-79
2023/08/06 00:56:03;;;;;;;7.07;3.37;;;15.00;99.90;;;;;;5013241;28;20181;-79
2023/08/06 00:58:29;;;;;;;10.03;3.40;;;15.00;99.90;;;;;;5014638;28;20177;-79
2023/08/06 01:00:54;;;;;;;9.40;3.90;;;15.00;99.90;;;;;;5012905;28;20691;-79
2023/08/06 01:03:20;;;;;;;8.20;3.20;;;15.00;99.90;;;;;;5013130;28;20591;-79
2023/08/06 01:05:46;;;;;;;12.93;4.20;;;15.00;99.90;;;;;;5015423;28;20568;-80
2023/08/06 01:08:40;;;;;;;17.63;3.63;;;15.00;99.90;;;;;;5014478;28;20180;-79
2023/08/06 01:11:21;;;;;;;5.63;3.60;;;15.00;99.90;;;;;;5014141;28;20580;-79
2023/08/06 01:13:51;;;;;;;5.10;3.63;;;14.90;99.90;;;;;;5014698;28;20447;-79
2023/08/06 01:16:18;;;;;;;6.73;3.60;;;14.90;99.90;;;;;;5012597;28;20181;-79
2023/08/06 01:18:46;;;;;;;7.40;3.70;;;15.00;99.90;;;;;;5013180;28;20613;-79
2023/08/06 01:21:15;;;;;;;4.37;3.43;;;15.10;99.90;;;;;;5014245;28;20193;-79
2023/08/06 01:23:42;;;;;;;6.50;3.77;;;15.00;99.90;;;;;;5013126;28;20172;-79
2023/08/06 01:26:12;;;;;;;7.07;3.50;;;14.90;99.90;;;;;;5013153;28;20180;-79
2023/08/06 01:28:54;;;;;;;7.03;3.53;;;14.90;99.90;;;;;;5013215;28;20184;-80
2023/08/06 01:31:29;;;;;;;8.37;3.87;;;15.00;99.90;;;;;;5013714;28;20212;-79
2023/08/06 01:33:57;;;;;;;5.90;2.87;;;15.00;99.90;;;;;;5013919;28;20633;-80
2023/08/06 01:36:23;;;;;;;6.20;3.47;;;15.00;99.90;;;;;;5013468;28;20197;-79
2023/08/06 01:38:54;;;;;;;5.93;3.03;;;15.00;99.90;;;;;;5014075;28;20169;-79
2023/08/06 01:41:19;;;;;;;3.97;3.07;;;15.00;99.90;;;;;;5015304;28;20549;-79
2023/08/06 01:43:45;;;;;;;6.07;3.20;;;15.00;99.90;;;;;;5013227;28;20183;-79
2023/08/06 01:46:10;;;;;;;9.27;3.50;;;15.00;99.90;;;;;;5013327;28;20208;-79
2023/08/06 01:48:36;;;;;;;5.97;3.20;;;15.00;99.90;;;;;;5013721;28;20190;-80
2023/08/06 01:51:05;;;;;;;4.17;3.10;;;15.00;99.90;;;;;;5017506;28;20246;-80
2023/08/06 01:53:31;;;;;;;4.53;3.17;;;15.00;99.90;;;;;;5028324;28;20173;-80
2023/08/06 01:55:57;;;;;;;8.53;3.33;;;15.00;99.90;;;;;;5025565;28;20581;-80
2023/08/06 01:58:22;;;;;;;7.90;3.10;;;15.00;99.90;;;;;;5015863;28;20208;-80
2023/08/06 02:00:48;;;;;;;8.40;3.17;;;15.00;99.90;;;;;;5017362;28;20212;-79
2023/08/06 02:03:13;;;;;;;5.97;3.40;;;15.00;99.90;;;;;;5017600;28;20317;-79
2023/08/06 02:05:40;;;;;;;6.43;3.47;;;15.00;99.90;;;;;;5016719;28;20673;-80
2023/08/06 02:08:05;;;;;;;7.67;3.60;;;15.00;99.90;;;;;;5018186;28;20173;-79
2023/08/06 02:10:31;;;;;;;5.80;3.03;;;15.00;99.90;;;;;;5016324;28;20362;-79
2023/08/06 02:12:56;;;;;;;10.37;3.33;;;15.00;99.90;;;;;;5017832;28;20165;-79
2023/08/06 02:15:22;;;;;;;10.37;3.87;;;15.00;99.90;;;;;;5014411;28;20279;-80
2023/08/06 02:17:47;;;;;;;3.93;3.23;;;15.00;99.90;;;;;;5017874;28;20189;-79
2023/08/06 02:20:13;;;;;;;4.70;3.10;;;14.90;99.90;;;;;;5017790;28;20630;-79
2023/08/06 02:22:38;;;;;;;5.70;3.17;;;15.00;99.90;;;;;;5016468;28;20196;-79
2023/08/06 02:25:04;;;;;;;12.33;3.57;;;15.00;99.90;;;;;;5016339;28;20180;-80
2023/08/06 02:27:30;;;;;;;3.97;3.40;;;15.00;99.90;;;;;;5015730;28;20194;-79
2023/08/06 02:29:56;;;;;;;3.50;2.80;;;15.00;99.90;;;;;;5017253;28;20495;-79
2023/08/06 02:32:21;;;;;;;7.23;3.40;;;14.90;99.90;;;;;;5015221;28;20177;-80
2023/08/06 02:34:47;;;;;;;6.30;2.90;;;15.00;99.90;;;;;;5015816;28;20196;-79
2023/08/06 02:37:12;;;;;;;7.27;3.30;;;15.00;99.90;;;;;;5017075;28;20172;-79
2023/08/06 02:39:39;;;;;;;5.40;3.47;;;15.00;99.90;;;;;;5015793;28;20185;-79
2023/08/06 02:42:07;;;;;;;9.00;3.23;;;15.00;99.90;;;;;;5015870;28;20216;-79
2023/08/06 02:44:33;;;;;;;5.37;2.80;;;15.10;99.90;;;;;;5017578;28;20649;-79
2023/08/06 02:46:59;;;;;;;5.67;2.90;;;15.00;99.90;;;;;;5016965;28;20169;-79
2023/08/06 02:49:24;;;;;;;9.17;2.70;;;15.00;99.90;;;;;;5014735;28;20189;-79
2023/08/06 02:51:50;;;;;;;8.07;3.13;;;14.90;99.90;;;;;;5014295;28;20220;-79
2023/08/06 02:54:15;;;;;;;6.77;3.37;;;15.00;99.90;;;;;;5016294;28;20264;-80
2023/08/06 02:56:44;;;;;;;6.40;2.90;;;15.00;99.90;;;;;;5017294;28;20187;-79
2023/08/06 02:59:10;;;;;;;5.67;3.10;;;15.00;99.90;;;;;;5016776;28;20165;-79
2023/08/06 03:01:36;;;;;;;6.93;2.97;;;15.00;99.90;;;;;;5016778;28;20669;-80
2023/08/06 03:04:02;;;;;;;5.43;3.17;;;15.00;99.90;;;;;;5016702;28;20169;-79
2023/08/06 03:06:27;;;;;;;5.67;3.03;;;15.00;99.90;;;;;;5014484;28;20560;-79
2023/08/06 03:08:53;;;;;;;2.70;2.50;;;15.00;99.90;;;;;;5016119;28;20211;-79
2023/08/06 03:11:18;;;;;;;6.30;2.80;;;15.00;99.90;;;;;;5015370;28;20209;-80
2023/08/06 03:13:44;;;;;;;11.10;3.47;;;15.00;99.90;;;;;;5016753;28;20604;-79
2023/08/06 03:16:09;;;;;;;9.90;3.43;;;15.00;99.90;;;;;;5015385;28;20276;-79
2023/08/06 03:18:35;;;;;;;7.43;3.17;;;15.00;99.90;;;;;;5015312;28;20368;-79
2023/08/06 03:21:00;;;;;;;6.03;3.20;;;15.00;99.90;;;;;;5013601;28;20331;-79
2023/08/06 03:23:26;;;;;;;7.60;3.40;;;15.00;99.90;;;;;;5016527;28;20177;-79
2023/08/06 03:25:51;;;;;;;6.03;3.27;;;15.00;99.90;;;;;;5016730;28;20173;-80
2023/08/06 03:28:17;;;;;;;6.47;2.97;;;15.00;99.90;;;;;;5015607;28;20267;-79
2023/08/06 03:30:43;;;;;;;9.07;3.10;;;15.10;99.90;;;;;;5016467;28;20268;-79
2023/08/06 03:33:08;;;;;;;14.77;3.83;;;14.90;99.90;;;;;;5016439;28;20629;-79
2023/08/06 03:35:34;;;;;;;8.40;3.27;;;15.00;99.90;;;;;;5014903;28;20215;-79
2023/08/06 03:37:59;;;;;;;5.93;3.10;;;14.90;99.90;;;;;;5013725;28;20252;-79
2023/08/06 03:40:25;;;;;;;9.30;2.97;;;15.00;99.90;;;;;;5014915;28;20268;-79
2023/08/06 03:42:50;;;;;;;4.50;3.30;;;15.00;99.90;;;;;;5015102;28;20644;-79
2023/08/06 03:45:16;;;;;;;8.47;3.23;;;15.00;99.90;;;;;;5013987;28;20644;-79
2023/08/06 03:47:41;;;;;;;7.37;3.57;;;15.00;99.90;;;;;;5016499;28;20248;-79
2023/08/06 03:50:07;;;;;;;5.40;3.23;;;15.00;99.90;;;;;;5016636;28;20205;-80
2023/08/06 03:52:33;;;;;;;5.83;2.87;;;15.00;99.90;;;;;;5016915;28;20183;-79
2023/08/06 03:54:58;;;;;;;6.20;2.97;;;15.00;99.90;;;;;;5016739;28;20177;-79
2023/08/06 03:57:24;;;;;;;5.93;2.97;;;15.00;99.90;;;;;;5017005;28;20541;-80
2023/08/06 03:59:49;;;;;;;6.13;3.07;;;15.00;99.90;;;;;;5015495;28;20181;-80
2023/08/06 04:02:15;;;;;;;9.43;3.10;;;15.00;99.90;;;;;;5024133;28;20209;-80
2023/08/06 04:04:40;;;;;;;8.33;3.40;;;15.00;99.90;;;;;;5036113;28;20180;-79
2023/08/06 04:07:06;;;;;;;6.23;3.40;;;15.20;99.90;;;;;;5034054;28;20180;-79
2023/08/06 04:09:31;;;;;;;6.67;3.23;;;15.00;99.90;;;;;;5018980;28;20183;-80
2023/08/06 04:11:58;;;;;;;7.13;3.20;;;15.00;99.90;;;;;;5014237;28;20222;-78
2023/08/06 04:14:25;;;;;;;5.33;3.10;;;15.00;99.90;;;;;;5014180;28;20177;-80
2023/08/06 04:16:51;;;;;;;3.77;3.00;;;15.00;99.90;;;;;;5011955;28;20200;-78
2023/08/06 04:19:16;;;;;;;7.87;3.10;;;15.00;99.90;;;;;;5013932;28;20180;-79
2023/08/06 04:21:42;;;;;;;5.27;3.00;;;15.00;99.90;;;;;;5014502;28;20224;-79
2023/08/06 04:24:07;;;;;;;7.10;3.33;;;15.00;99.90;;;;;;5013786;28;20180;-79
2023/08/06 04:26:33;;;;;;;5.43;2.80;;;15.00;99.90;;;;;;5016288;28;20219;-79
2023/08/06 04:28:58;;;;;;;3.40;3.00;;;15.00;99.90;;;;;;5014375;28;20552;-79
2023/08/06 04:31:24;;;;;;;3.83;3.03;;;15.00;99.90;;;;;;5015562;28;20295;-79
2023/08/06 04:33:50;;;;;;;6.60;3.57;;;15.00;99.90;;;;;;5014234;28;20668;-79
2023/08/06 04:36:15;;;;;;;5.60;3.30;;;15.00;99.90;;;;;;5016006;28;20199;-79
2023/08/06 04:38:44;;;;;;;6.80;3.10;;;15.00;99.90;;;;;;5014194;28;20177;-79
2023/08/06 04:41:10;;;;;;;4.17;3.30;;;15.00;99.90;;;;;;5014346;28;20201;-79
2023/08/06 04:43:36;;;;;;;7.13;2.97;;;15.10;99.90;;;;;;5015579;28;20180;-79
2023/08/06 04:46:02;;;;;;;5.47;3.03;;;15.00;99.90;;;;;;5015508;28;20527;-79
2023/08/06 04:48:27;;;;;;;7.47;3.27;;;15.10;99.90;;;;;;5013738;28;20216;-80
2023/08/06 04:50:53;;;;;;;5.07;2.97;;;15.10;99.90;;;;;;5012130;28;20219;-79
2023/08/06 04:53:18;;;;;;;6.43;3.20;;;15.00;99.90;;;;;;5013853;28;20181;-79
2023/08/06 04:55:44;;;;;;;5.63;3.27;;;15.10;99.90;;;;;;5014796;28;20196;-79
2023/08/06 04:58:10;;;;;;;5.47;3.03;;;15.00;99.90;;;;;;5015229;28;20196;-78
2023/08/06 05:00:35;;;;;;;7.63;3.20;;;15.10;99.90;;;;;;5012790;28;20216;-79
2023/08/06 05:03:01;;;;;;;8.83;2.77;;;15.10;99.90;;;;;;5013791;28;20180;-79
2023/08/06 05:05:27;;;;;;;4.27;2.93;;;15.10;99.90;;;;;;5013778;28;20212;-78
2023/08/06 05:07:56;;;;;;;3.90;2.80;;;15.10;99.90;;;;;;5011693;28;20196;-81
2023/08/06 05:10:21;;;;;;;6.07;2.77;;;15.10;99.90;;;;;;5011568;28;20213;-79
2023/08/06 05:12:47;;;;;;;6.90;3.20;;;15.10;99.90;;;;;;5015112;28;20226;-79
2023/08/06 05:15:12;;;;;;;4.47;2.47;;;15.10;99.90;;;;;;5013213;28;20173;-82
2023/08/06 05:17:38;;;;;;;3.97;3.03;;;15.10;99.90;;;;;;5014855;28;20216;-81
2023/08/06 05:20:04;;;;;;;3.50;3.00;;;15.00;99.90;;;;;;5013114;28;20284;-79
2023/08/06 05:22:29;;;;;;;4.23;3.20;;;15.10;99.90;;;;;;5013107;28;20183;-81
2023/08/06 05:24:55;;;;;;;5.60;3.13;;;15.10;99.90;;;;;;5012845;28;20181;-82
2023/08/06 05:27:20;;;;;;;9.47;3.33;;;15.10;99.90;;;;;;5012821;28;20223;-79
2023/08/06 05:29:48;;;;;;;4.53;3.13;;;15.10;99.90;;;;;;5013140;28;20204;-78
2023/08/06 05:32:13;;;;;;;4.53;2.97;;;15.10;99.90;;;;;;5015475;28;20486;-79
2023/08/06 05:34:39;;;;;;;5.03;3.07;;;15.20;99.90;;;;;;5016975;28;20204;-79
2023/08/06 05:37:05;;;;;;;6.17;2.97;;;15.10;99.90;;;;;;5017025;28;20647;-79
2023/08/06 05:39:30;;;;;;;3.77;2.80;;;15.10;99.90;;;;;;5018777;28;20196;-78
2023/08/06 05:41:56;;;;;;;8.27;3.00;;;15.30;99.90;;;;;;5018613;28;20280;-79
2023/08/06 05:44:23;;;;;;;4.57;3.23;;;15.10;99.90;;;;;;5016570;28;20184;-79
2023/08/06 05:46:49;;;;;;;8.83;3.87;;;15.10;99.90;;;;;;5015933;28;20181;-79
2023/08/06 05:49:15;;;;;;;8.47;3.23;;;15.00;99.90;;;;;;5018455;28;20176;-79
2023/08/06 05:51:41;;;;;;;4.40;3.00;;;15.00;99.90;;;;;;5017565;28;20234;-79
2023/08/06 05:54:06;;;;;;;7.87;2.80;;;15.00;99.90;;;;;;5017131;28;20192;-79
2023/08/06 05:56:32;;;;;;;5.00;3.30;;;15.10;99.90;;;;;;5018348;28;20169;-79
2023/08/06 05:58:58;;;;;;;7.67;2.90;;;15.00;99.90;;;;;;5015820;28;20181;-79
2023/08/06 06:01:23;;;;;;;6.00;3.10;;;15.00;99.90;;;;;;5018506;28;20224;-79
2023/08/06 06:03:49;;;;;;;4.20;2.77;;;15.00;99.90;;;;;;5017963;28;20181;-78
2023/08/06 06:06:15;;;;;;;7.03;3.00;;;15.10;99.90;;;;;;5017692;28;20667;-79
2023/08/06 06:08:41;;;;;;;5.77;3.03;;;15.10;99.90;;;;;;5015533;28;20215;-81
2023/08/06 06:11:06;;;;;;;6.60;2.97;;;15.10;99.90;;;;;;5018078;28;20236;-79
2023/08/06 06:13:32;;;;;;;5.87;3.03;;;15.10;99.90;;;;;;5018094;28;20204;-79
2023/08/06 06:15:57;;;;;;;5.50;3.20;;;15.00;99.90;;;;;;5018332;28;20200;-79
2023/08/06 06:18:23;;;;;;;5.60;3.20;;;15.00;99.90;;;;;;5018160;28;20554;-79
2023/08/06 06:20:49;;;;;;;5.17;3.10;;;15.10;99.90;;;;;;5017899;28;20750;-78
2023/08/06 06:23:14;;;;;;;7.40;3.13;;;15.10;99.90;;;;;;5015671;28;20180;-79
2023/08/06 06:25:46;;;;;;;4.70;3.07;;;15.10;99.90;;;;;;5017035;28;20176;-79
2023/08/06 06:28:12;;;;;;;12.80;3.43;;;15.10;99.90;;;;;;5016489;28;20181;-81
2023/08/06 06:30:37;;;;;;;5.20;2.93;;;15.20;99.90;;;;;;5018274;28;20582;-79
2023/08/06 06:33:03;;;;;;;7.40;3.13;;;15.20;99.90;;;;;;5017022;28;20556;-79
2023/08/06 06:35:28;;;;;;;11.27;3.43;;;15.30;99.90;;;;;;5019131;28;20553;-80
2023/08/06 06:37:54;;;;;;;3.13;2.83;;;15.30;99.90;;;;;;5025400;28;20248;-79
2023/08/06 06:40:19;;;;;;;7.43;3.13;;;15.40;99.90;;;;;;5025746;28;20240;-80
2023/08/06 06:42:45;;;;;;;5.97;2.90;;;15.40;99.90;;;;;;5017317;28;20223;-79
2023/08/06 06:45:10;;;;;;;3.80;3.00;;;15.50;99.90;;;;;;5017443;28;20219;-80
2023/08/06 06:47:36;;;;;;;5.47;3.07;;;15.40;99.90;;;;;;5015610;28;20177;-80
2023/08/06 06:50:02;;;;;;;5.97;3.03;;;15.50;99.90;;;;;;5016407;28;20660;-80
2023/08/06 06:52:27;;;;;;;8.20;3.20;;;15.60;99.90;;;;;;5016855;28;20264;-80
2023/08/06 06:54:53;;;;;;;10.63;3.10;;;15.60;99.90;;;;;;5015150;28;20676;-80
2023/08/06 06:57:18;;;;;;;4.87;3.10;;;15.70;99.90;;;;;;5016084;28;20207;-79
2023/08/06 06:59:44;;;;;;;5.40;3.30;;;15.70;99.90;;;;;;5016798;28;20169;-80
2023/08/06 07:02:09;;;;;;;3.27;2.40;;;15.70;99.90;;;;;;5016854;28;20196;-79
2023/08/06 07:04:35;;;;;;;5.80;2.77;;;15.80;99.90;;;;;;5015089;28;20175;-79
2023/08/06 07:07:00;;;;;;;3.30;2.90;;;15.90;99.90;;;;;;5015377;28;20264;-79
2023/08/06 07:09:26;;;;;;;2.70;2.50;;;15.90;99.90;;;;;;5019139;28;20179;-79
2023/08/06 07:11:52;;;;;;;4.63;3.30;;;16.00;99.90;;;;;;5014360;28;20414;-79
2023/08/06 07:14:18;;;;;;;5.87;3.07;;;16.10;99.90;;;;;;5017007;28;20184;-80
2023/08/06 07:16:43;;;;;;;5.00;3.17;;;16.20;99.90;;;;;;5016617;28;20265;-80
2023/08/06 07:19:09;;;;;;;5.50;3.20;;;16.30;99.90;;;;;;5016623;28;20544;-79
2023/08/06 07:21:34;;;;;;;13.07;3.43;;;16.40;99.90;;;;;;5016947;28;20189;-80
2023/08/06 07:24:00;;;;;;;2.80;2.23;;;16.40;99.90;;;;;;5016439;28;20602;-80
2023/08/06 07:26:25;;;;;;;4.87;2.40;;;16.50;99.90;;;;;;5016988;28;20693;-80
2023/08/06 07:28:51;;;;;;;6.60;3.10;;;16.50;99.90;;;;;;5014655;28;20255;-80
2023/08/06 07:31:16;;;;;;;5.30;3.33;;;16.80;99.90;;;;;;5014560;28;20245;-79
2023/08/06 07:33:42;;;;;;;4.63;3.10;;;16.80;99.90;;;;;;5016413;28;20184;-80
2023/08/06 07:36:12;;;;;;;3.20;2.90;;;16.90;99.90;;;;;;5014619;28;20193;-79
2023/08/06 07:38:37;;;;;;;3.00;2.70;;;16.90;99.90;;;;;;5014980;28;20598;-80
2023/08/06 07:41:03;;;;;;;5.63;3.13;;;16.90;99.90;;;;;;5015275;28;20201;-80
2023/08/06 07:43:29;;;;;;;4.17;2.83;;;16.90;99.90;;;;;;5016525;28;20205;-79
2023/08/06 07:45:58;;;;;;;3.63;2.80;;;16.90;99.90;;;;;;5013670;28;20185;-79
2023/08/06 07:48:24;;;;;;;6.60;2.50;;;16.90;99.90;;;;;;5013504;28;20189;-79
2023/08/06 07:50:53;;;;;;;5.40;2.60;;;16.90;99.90;;;;;;5014407;28;20263;-79
2023/08/06 07:53:19;;;;;;;2.97;2.10;;;16.90;99.90;;;;;;5015126;28;20169;-79
2023/08/06 07:55:49;;;;;;;3.63;2.00;;;17.00;99.90;;;;;;5015182;28;20613;-79
2023/08/06 07:58:14;;;;;;;4.90;2.10;;;17.20;99.90;;;;;;5016325;28;20251;-80
2023/08/06 08:00:42;;;;;;;4.83;2.53;;;17.20;99.90;;;;;;5014948;28;20267;-79
2023/08/06 08:03:08;;;;;;;3.00;1.97;;;17.20;99.90;;;;;;5016317;28;20169;-80
2023/08/06 08:05:33;;;;;;;2.70;1.90;;;17.30;99.90;;;;;;5014172;28;20180;-80
2023/08/06 08:07:59;;;;;;;2.80;1.90;;;17.30;99.90;;;;;;5015846;28;20259;-79
2023/08/06 08:10:24;;;;;;;4.53;2.40;;;17.30;99.90;;;;;;5014363;28;20232;-79
2023/08/06 08:12:50;;;;;;;4.40;2.40;;;17.20;99.90;;;;;;5015575;28;20599;-80
2023/08/06 08:15:15;;;;;;;5.67;2.50;;;17.30;99.90;;;;;;5014668;28;20682;-79
2023/08/06 08:17:41;;;;;;;4.60;2.57;;;17.30;99.90;;;;;;5014043;28;20184;-80
2023/08/06 08:20:07;;;;;;;4.00;2.53;;;17.30;99.90;;;;;;5015592;28;20192;-80
2023/08/06 08:22:32;;;;;;;3.57;2.70;;;17.30;99.90;;;;;;5015520;28;20215;-79
2023/08/06 08:24:58;;;;;;;5.37;2.77;;;17.30;99.90;;;;;;5012801;28;20176;-79
2023/08/06 08:27:23;;;;;;;10.13;2.83;;;17.30;99.90;;;;;;5013263;28;20185;-79
2023/08/06 08:29:49;;;;;;;4.93;2.77;;;17.30;99.90;;;;;;5013393;28;20176;-79
2023/08/06 08:32:14;;;;;;;4.67;2.50;;;17.40;99.90;;;;;;5014435;28;20547;-80
2023/08/06 08:34:40;;;;;;;5.70;2.40;;;17.30;99.90;;;;;;5014603;28;20343;-80
2023/08/06 08:37:06;;;;;;;4.83;3.13;;;17.30;99.90;;;;;;5016149;28;20161;-80
2023/08/06 08:39:31;;;;;;;6.63;2.60;;;17.40;99.90;;;;;;5018803;28;20258;-80
2023/08/06 08:41:57;;;;;;;3.13;2.33;;;17.30;99.90;;;;;;5014296;28;20247;-79
2023/08/06 08:44:28;;;;;;;5.27;2.93;;;17.40;99.90;;;;;;5015385;28;20192;-80
2023/08/06 08:46:53;;;;;;;3.13;2.70;;;17.30;99.90;;;;;;5026177;28;20161;-79
2023/08/06 08:49:23;;;;;;;2.73;2.37;;;17.30;99.90;;;;;;5030626;28;20180;-79
2023/08/06 08:51:50;;;;;;;3.57;2.53;;;17.30;99.90;;;;;;5025470;28;20200;-79
2023/08/06 08:54:17;;;;;;;3.27;2.73;;;17.40;99.90;;;;;;5016510;28;20288;-79
2023/08/06 08:56:43;;;;;;;3.97;2.77;;;17.40;99.90;;;;;;5018629;28;20177;-79
2023/08/06 08:59:10;;;;;;;5.37;2.50;;;17.50;99.90;;;;;;5031962;28;20184;-78
2023/08/06 09:01:38;;;;;;;2.63;2.43;;;17.50;99.90;;;;;;5032264;28;20271;-79
2023/08/06 09:04:05;;;;;;;8.13;3.03;;;17.60;99.90;;;;;;5035036;28;20181;-79
2023/08/06 09:06:35;;;;;;;4.13;2.47;;;17.50;99.90;;;;;;5033980;28;20181;-79
2023/08/06 09:09:09;;;;;;;5.03;3.00;;;17.60;99.90;;;;;;5035060;28;20192;-79
2023/08/06 09:11:49;;;;;;;5.43;2.20;;;17.70;99.90;;;;;;5034627;28;20219;-79
2023/08/06 09:14:14;;;;;;;7.13;2.63;;;17.60;99.90;;;;;;5033052;28;20185;-79
2023/08/06 09:16:40;;;;;;;2.77;2.27;;;17.60;99.90;;;;;;5033874;28;20176;-79
2023/08/06 09:19:15;;;;;;;5.83;2.47;;;17.60;99.90;;;;;;5034734;28;20207;-79
2023/08/06 09:21:41;;;;;;;3.70;2.70;;;17.60;99.90;;;;;;5034462;28;20191;-79
2023/08/06 09:24:09;;;;;;;2.97;2.30;;;17.70;99.90;;;;;;5032463;28;20184;-79
2023/08/06 09:26:34;;;;;;;6.07;2.30;;;17.70;99.90;;;;;;5034144;28;20200;-79
2023/08/06 09:29:00;;;;;;;4.50;2.37;;;17.70;99.90;;;;;;5015948;28;20211;-79
2023/08/06 09:31:34;;;;;;;4.53;2.50;;;17.70;99.90;;;;;;5011906;28;20208;-79
2023/08/06 09:34:01;;;;;;;2.93;1.70;;;17.80;99.90;;;;;;5012963;28;20188;-79
2023/08/06 09:36:27;;;;;;;4.07;1.80;;;17.70;99.90;;;;;;5014085;28;20208;-80
2023/08/06 09:38:53;;;;;;;6.23;1.87;;;17.70;99.90;;;;;;5014085;28;20256;-79
2023/08/06 09:41:30;;;;;;;3.43;2.13;;;17.70;99.90;;;;;;5014179;28;20731;-79
2023/08/06 09:43:56;;;;;;;5.10;2.00;;;17.80;99.90;;;;;;5012540;28;20292;-78
2023/08/06 09:46:22;;;;;;;5.00;2.00;;;17.80;99.90;;;;;;5008719;28;20193;-79
2023/08/06 09:48:48;;;;;;;7.53;2.13;;;17.70;99.90;;;;;;5011958;28;20172;-79
2023/08/06 09:51:14;;;;;;;4.10;2.03;;;17.80;99.90;;;;;;5011752;28;20204;-79
2023/08/06 09:53:41;;;;;;;2.50;1.93;;;17.80;99.90;;;;;;5012064;28;20227;-79
2023/08/06 09:56:06;;;;;;;4.33;2.23;;;17.80;99.90;;;;;;5013645;28;20200;-79
2023/08/06 09:58:32;;;;;;;3.87;1.90;;;17.80;99.90;;;;;;5011142;28;20317;-79
2023/08/06 10:00:59;;;;;;;4.00;1.80;;;17.70;99.90;;;;;;5010997;28;20209;-79
2023/08/06 10:03:27;;;;;;;3.17;1.93;;;17.70;99.90;;;;;;5012098;28;20590;-79
2023/08/06 10:05:55;;;;;;;7.20;2.57;;;17.70;99.90;;;;;;5012042;28;20181;-79
2023/08/06 10:08:20;;;;;;;4.33;2.23;;;17.70;99.90;;;;;;5012245;28;20185;-79
2023/08/06 10:10:46;;;;;;;4.43;2.10;;;17.70;99.90;;;;;;5011432;28;20263;-79
2023/08/06 10:13:13;;;;;;;3.50;1.67;;;17.70;99.90;;;;;;5012079;28;20190;-79
2023/08/06 10:15:39;;;;;;;3.57;2.03;;;17.70;99.90;;;;;;5011800;28;20200;-79
2023/08/06 10:18:06;;;;;;;3.40;2.10;;;17.70;99.90;;;;;;5012563;28;20288;-79
2023/08/06 10:20:35;;;;;;;9.63;2.90;;;17.70;99.90;;;;;;5015452;28;20668;-79
2023/08/06 10:23:01;;;;;;;7.20;2.67;;;17.60;99.90;;;;;;5015328;28;20173;-78
2023/08/06 10:25:31;;;;;;;5.97;3.17;;;17.60;99.90;;;;;;5015472;28;20196;-79
2023/08/06 10:27:57;;;;;;;6.07;3.23;;;17.50;99.90;;;;;;5016631;28;20700;-79
2023/08/06 10:30:31;;;;;;;6.47;3.27;;;17.40;99.90;;;;;;5016171;28;20292;-80
2023/08/06 10:33:01;;;;;;;7.90;3.30;;;17.30;99.90;;;;;;5015682;28;20410;-81
2023/08/06 10:35:50;;;;;;;5.87;3.20;;;17.20;99.90;;;;;;5016233;28;20192;-79
2023/08/06 10:38:18;;;;;;;3.97;3.10;;;17.00;99.90;;;;;;5016650;28;20579;-80
2023/08/06 10:41:01;;;;;;;5.60;4.23;;;17.00;99.90;;;;;;5016897;28;20243;-80
2023/08/06 10:43:30;;;;;;;7.73;4.50;;;16.80;99.90;;;;;;5016763;28;20189;-80
2023/08/06 10:45:58;;;;;;;12.73;7.30;;;16.70;99.90;;;;;;5015191;28;20241;-79
2023/08/06 10:48:36;;;;;;;11.90;6.57;;;16.60;99.90;;;;;;5016471;28;20169;-79
2023/08/06 10:51:02;;;;;;;5.70;2.80;;;16.50;99.90;;;;;;5014091;28;20208;-80
2023/08/06 10:53:28;;;;;;;2.93;1.37;;;16.30;99.90;;;;;;5015400;28;20173;-79
2023/08/06 10:55:53;;;;;;;1.20;1.03;;;16.00;99.90;;;;;;5015800;28;20173;-80
2023/08/06 10:58:19;;;;;;;2.47;0.80;;;15.90;99.90;;;;;;5015558;28;20173;-79
2023/08/06 11:00:45;;;;;;;5.50;1.30;;;15.90;99.90;;;;;;5016863;28;20212;-80
2023/08/06 11:03:11;;;;;;;3.33;1.90;;;15.90;99.90;;;;;;5026337;28;20189;-81
2023/08/06 11:05:37;;;;;;;3.90;1.20;;;15.70;99.90;;;;;;5035633;28;20200;-81
2023/08/06 11:08:02;;;;;;;2.43;1.00;;;15.60;99.90;;;;;;5006346;28;20232;-80
2023/08/06 11:10:28;;;;;;;3.03;1.03;;;15.50;99.90;;;;;;5001586;28;20228;-81
2023/08/06 11:12:54;;;;;;;2.57;1.33;;;15.40;99.90;;;;;;5000276;28;20327;-81
2023/08/06 11:15:21;;;;;;;1.17;1.00;;;15.40;99.90;;;;;;4999794;28;20253;-79
2023/08/06 11:17:47;;;;;;;2.37;1.17;;;15.40;99.90;;;;;;4999990;28;20612;-81
2023/08/06 11:20:12;;;;;;;1.40;1.20;;;15.40;99.90;;;;;;4999237;28;20201;-81
2023/08/06 11:22:38;;;;;;;3.20;1.30;;;15.30;99.90;;;;;;5003878;28;20568;-80
2023/08/06 11:25:06;;;;;;;1.70;1.20;;;15.20;99.90;;;;;;5017570;28;20707;-80
2023/08/06 11:27:32;;;;;;;1.50;1.33;;;15.20;99.90;;;;;;5019009;28;20204;-81
2023/08/06 11:29:57;;;;;;;1.60;1.30;;;15.20;99.90;;;;;;5016609;28;20181;-81
2023/08/06 11:32:23;;;;;;;1.93;1.30;;;15.10;99.90;;;;;;5016272;28;20181;-81
2023/08/06 11:34:49;;;;;;;2.63;1.50;;;15.10;99.90;;;;;;5015701;28;20200;-81
2023/08/06 11:37:14;;;;;;;4.30;1.50;;;15.00;99.90;;;;;;5015914;28;20215;-81
2023/08/06 11:39:46;;;;;;;2.70;2.10;;;15.10;99.90;;;;;;5014982;28;20180;-80
2023/08/06 11:42:12;;;;;;;1.63;1.50;;;15.00;99.90;;;;;;5016288;28;20228;-81
2023/08/06 11:44:38;;;;;;;1.70;1.50;;;15.10;99.90;;;;;;5015788;28;20231;-81
2023/08/06 11:47:05;;;;;;;1.93;1.30;;;15.10;99.90;;;;;;5015652;28;20214;-81
2023/08/06 11:49:47;;;;;;;1.77;1.60;;;15.00;99.90;;;;;;5017617;28;20616;-81
2023/08/06 11:52:19;;;;;;;6.07;1.90;;;15.00;99.90;;;;;;5017729;28;20193;-81
2023/08/06 11:54:45;;;;;;;1.60;1.47;;;15.00;99.90;;;;;;5018050;28;20195;-81
2023/08/06 11:57:11;;;;;;;2.30;1.63;;;15.00;99.90;;;;;;5016468;28;20318;-78
2023/08/06 11:59:38;;;;;;;1.90;1.50;;;15.00;99.90;;;;;;5016468;28;20648;-78
2023/08/06 12:02:08;;;;;;;1.50;1.27;;;15.00;99.90;;;;;;5015309;28;20690;-80
2023/08/06 12:05:13;;;;;;;2.33;1.07;;;15.00;99.90;;;;;;5018655;28;20181;-79
2023/08/06 12:07:41;;;;;;;1.67;1.10;;;15.10;99.90;;;;;;4960554;28;20189;-81
2023/08/06 12:10:07;;;;;;;1.10;0.97;;;15.00;99.90;;;;;;4975353;28;20225;-80
2023/08/06 12:12:34;;;;;;;4.10;1.20;;;14.90;99.90;;;;;;4994192;28;20205;-78
2023/08/06 12:15:00;;;;;;;4.20;1.13;;;15.00;99.90;;;;;;5015493;28;20179;-78
2023/08/06 12:17:26;;;;;;;1.93;1.20;;;15.00;99.90;;;;;;5014736;28;20542;-79
2023/08/06 12:19:51;;;;;;;3.70;1.30;;;14.90;99.90;;;;;;5015052;28;20235;-79
2023/08/06 12:22:18;;;;;;;1.40;1.13;;;14.90;99.90;;;;;;5015632;28;20235;-78
2023/08/06 12:24:45;;;;;;;1.20;1.10;;;14.90;99.90;;;;;;5013666;28;20192;-78
2023/08/06 12:27:11;;;;;;;1.50;1.40;;;15.00;99.90;;;;;;5014782;28;20185;-79
2023/08/06 12:29:42;;;;;;;2.40;1.30;;;15.00;99.90;;;;;;5013687;28;20208;-78
2023/08/06 12:32:07;;;;;;;2.43;1.70;;;15.00;99.90;;;;;;5013333;28;20216;-78
2023/08/06 12:34:33;;;;;;;1.90;1.70;;;15.00;99.90;;;;;;5014709;28;20648;-79
2023/08/06 12:36:58;;;;;;;7.20;1.90;;;15.00;99.90;;;;;;5013958;28;20170;-77
2023/08/06 12:39:24;;;;;;;2.70;1.93;;;15.00;99.90;;;;;;5012277;28;20181;-78
2023/08/06 12:41:49;;;;;;;2.70;2.13;;;15.00;99.90;;;;;;5013134;28;20275;-77